createdAt,value
2024-02-09T00:02:16.437Z,80.63
2024-02-09T00:04:49.138Z,80.82
2024-02-09T00:07:50.522Z,80.52
2024-02-09T00:10:39.550Z,80.59
2024-02-09T00:13:16.249Z,80.70
2024-02-09T00:15:57.860Z,80.67
2024-02-09T00:18:44.627Z,80.82
2024-02-09T00:21:19.352Z,80.74
2024-02-09T00:24:03.577Z,80.73
2024-02-09T00:26:37.997Z,80.70
2024-02-09T00:29:30.974Z,80.87
2024-02-09T00:31:59.048Z,80.91
2024-02-09T00:34:29.027Z,80.85
2024-02-09T00:37:17.075Z,81.02
2024-02-09T00:39:52.938Z,80.92
2024-02-09T00:42:35.908Z,80.97
2024-02-09T00:45:09.799Z,81.39
2024-02-09T00:47:40.685Z,81.37
2024-02-09T00:50:11.564Z,81.45
2024-02-09T00:53:01.847Z,81.12
2024-02-09T00:55:31.076Z,81.50
2024-02-09T00:58:02.886Z,81.59
2024-02-09T01:00:44.237Z,81.53
2024-02-09T01:03:42.278Z,81.59
2024-02-09T01:06:29.678Z,81.75
2024-02-09T01:09:19.642Z,81.51
2024-02-09T01:12:10.385Z,81.69
2024-02-09T01:14:58.664Z,81.62
2024-02-09T01:18:06.877Z,82.28
2024-02-09T01:21:16.635Z,82.03
2024-02-09T01:24:05.355Z,82.32
2024-02-09T01:26:56.184Z,81.96
2024-02-09T01:30:02.256Z,81.89
2024-02-09T01:32:50.228Z,81.82
2024-02-09T01:35:50.096Z,82.32
2024-02-09T01:38:44.543Z,81.73
2024-02-09T01:42:09.732Z,82.10
2024-02-09T01:44:55.334Z,82.13
2024-02-09T01:48:06.123Z,81.94
2024-02-09T01:50:52.483Z,82.15
2024-02-09T01:53:52.394Z,81.79
2024-02-09T01:56:42.513Z,81.87
2024-02-09T01:59:40.552Z,82.07
2024-02-09T02:02:43.077Z,81.73
2024-02-09T02:05:29.157Z,82.05
2024-02-09T02:08:55.738Z,82.11
2024-02-09T02:12:04.717Z,82.22
2024-02-09T02:14:52.487Z,82.03
2024-02-09T02:17:37.761Z,81.93
2024-02-09T02:20:25.904Z,82.17
2024-02-09T02:23:20.607Z,82.06
2024-02-09T02:26:36.154Z,82.58
2024-02-09T02:30:03.192Z,82.26
2024-02-09T02:32:49.810Z,82.22
2024-02-09T02:35:58.584Z,82.32
2024-02-09T02:39:04.377Z,82.28
2024-02-09T02:41:56.187Z,82.06
2024-02-09T02:44:31.223Z,82.09
2024-02-09T02:47:21.129Z,82.05
2024-02-09T02:50:27.605Z,81.73
2024-02-09T02:53:33.285Z,82.07
2024-02-09T02:56:35.196Z,82.07
2024-02-09T02:59:24.274Z,82.99
2024-02-09T03:02:09.930Z,82.48
2024-02-09T03:04:46.205Z,82.22
2024-02-09T03:07:50.666Z,81.56
2024-02-09T03:10:12.160Z,81.51
2024-02-09T03:13:02.558Z,81.77
2024-02-09T03:15:31.889Z,81.73
2024-02-09T03:18:06.745Z,81.45
2024-02-09T03:20:56.814Z,81.78
2024-02-09T03:23:33.950Z,81.61
2024-02-09T03:26:03.949Z,82.22
2024-02-09T03:28:52.395Z,82.60
2024-02-09T03:32:20.888Z,82.83
2024-02-09T03:34:48.967Z,82.73
2024-02-09T03:37:18.364Z,82.72
2024-02-09T03:40:04.667Z,82.77
2024-02-09T03:42:38.766Z,82.48
2024-02-09T03:45:48.502Z,82.76
2024-02-09T03:48:36.116Z,82.76
2024-02-09T03:51:12.106Z,82.66
2024-02-09T03:54:02.061Z,82.27
2024-02-09T03:56:38.624Z,81.83
2024-02-09T03:59:09.231Z,81.75
2024-02-09T04:01:37.108Z,81.65
2024-02-09T04:04:05.388Z,81.76
2024-02-09T04:06:32.443Z,81.63
2024-02-09T04:08:59.719Z,81.65
2024-02-09T04:11:31.408Z,81.83
2024-02-09T04:13:58.833Z,81.09
2024-02-09T04:16:29.070Z,80.48
2024-02-09T04:18:56.649Z,80.47
2024-02-09T04:21:34.671Z,80.56
2024-02-09T04:24:04.702Z,80.80
2024-02-09T04:26:32.124Z,80.79
2024-02-09T04:28:59.483Z,80.55
2024-02-09T04:31:43.054Z,80.76
2024-02-09T04:34:13.084Z,80.44
2024-02-09T04:36:41.814Z,80.35
2024-02-09T04:39:11.550Z,80.18
2024-02-09T04:41:39.303Z,80.02
2024-02-09T04:44:09.588Z,80.13
2024-02-09T04:46:50.737Z,79.85
2024-02-09T04:49:17.850Z,79.94
2024-02-09T04:51:48.447Z,80.10
2024-02-09T04:54:16.548Z,80.82
2024-02-09T04:56:45.220Z,81.07
2024-02-09T04:59:13.591Z,81.07
2024-02-09T05:01:44.565Z,81.08
2024-02-09T05:04:15.805Z,81.05
2024-02-09T05:06:43.167Z,80.97
2024-02-09T05:09:13.037Z,80.48
2024-02-09T05:12:02.527Z,80.21
2024-02-09T05:14:32.158Z,80.25
2024-02-09T05:16:59.671Z,80.24
2024-02-09T05:19:28.594Z,79.84
2024-02-09T05:22:40.538Z,79.80
2024-02-09T05:25:10.831Z,79.81
2024-02-09T05:27:50.757Z,79.24
2024-02-09T05:30:30.866Z,79.31
2024-02-09T05:32:57.877Z,79.09
2024-02-09T05:35:35.892Z,79.45
2024-02-09T05:38:14.326Z,79.02
2024-02-09T05:40:55.578Z,78.53
2024-02-09T05:43:24.901Z,78.35
2024-02-09T05:46:14.481Z,78.53
2024-02-09T05:48:52.822Z,78.12
2024-02-09T05:51:36.978Z,78.29
2024-02-09T05:54:28.374Z,78.39
2024-02-09T05:57:03.259Z,78.39
2024-02-09T05:59:30.929Z,78.07
2024-02-09T06:02:19.715Z,78.24
2024-02-09T06:04:46.805Z,78.15
2024-02-09T06:07:16.115Z,78.01
2024-02-09T06:09:43.507Z,77.75
2024-02-09T06:12:19.650Z,77.92
2024-02-09T06:14:49.225Z,78.10
2024-02-09T06:17:19.567Z,77.75
2024-02-09T06:20:11.053Z,78.20
2024-02-09T06:22:39.232Z,77.80
2024-02-09T06:25:14.858Z,77.97
2024-02-09T06:27:50.834Z,77.37
2024-02-09T06:30:18.710Z,77.65
2024-02-09T06:33:07.797Z,77.96
2024-02-09T06:35:34.953Z,77.68
2024-02-09T06:38:02.897Z,77.62
2024-02-09T06:40:43.984Z,77.66
2024-02-09T06:43:21.180Z,77.41
2024-02-09T06:46:10.699Z,77.28
2024-02-09T06:49:31.196Z,77.96
2024-02-09T06:52:12.890Z,77.69
2024-02-09T06:55:02.310Z,77.73
2024-02-09T06:57:29.945Z,78.08
2024-02-09T07:00:19.780Z,77.87
2024-02-09T07:02:48.812Z,78.19
2024-02-09T07:05:21.258Z,78.51
2024-02-09T07:08:09.412Z,78.88
2024-02-09T07:10:38.952Z,78.39
2024-02-09T07:13:31.245Z,78.37
2024-02-09T07:16:14.586Z,78.20
2024-02-09T07:18:55.241Z,78.96
2024-02-09T07:21:26.655Z,77.90
2024-02-09T07:24:17.372Z,78.34
2024-02-09T07:26:50.557Z,77.90
2024-02-09T07:29:17.349Z,77.63
2024-02-09T07:31:44.281Z,77.35
2024-02-09T07:34:13.636Z,77.49
2024-02-09T07:36:40.544Z,77.52
2024-02-09T07:39:09.132Z,77.48
2024-02-09T07:42:09.872Z,77.12
2024-02-09T07:44:57.365Z,77.64
2024-02-09T07:47:55.131Z,77.48
2024-02-09T07:50:24.865Z,77.19
2024-02-09T07:53:01.028Z,77.38
2024-02-09T07:55:27.854Z,77.22
2024-02-09T07:57:56.374Z,77.03
2024-02-09T08:00:23.979Z,77.22
2024-02-09T08:02:50.820Z,76.81
2024-02-09T08:05:27.916Z,77.37
2024-02-09T08:07:56.014Z,77.27
2024-02-09T08:10:24.717Z,77.18
2024-02-09T08:12:52.826Z,76.95
2024-02-09T08:15:20.406Z,77.07
2024-02-09T08:17:54.420Z,76.60
2024-02-09T08:20:38.490Z,76.79
2024-02-09T08:23:08.110Z,76.84
2024-02-09T08:25:37.905Z,76.80
2024-02-09T08:28:48.579Z,76.59
2024-02-09T08:31:24.499Z,76.62
2024-02-09T08:33:52.039Z,76.30
2024-02-09T08:36:39.492Z,76.51
2024-02-09T08:39:06.946Z,76.23
2024-02-09T08:41:34.868Z,76.02
2024-02-09T08:44:03.095Z,76.09
2024-02-09T08:46:30.304Z,75.87
2024-02-09T08:49:02.059Z,75.67
2024-02-09T08:51:29.158Z,75.79
2024-02-09T08:54:01.912Z,75.67
2024-02-09T08:56:29.136Z,75.47
2024-02-09T08:59:11.299Z,75.73
2024-02-09T09:01:39.792Z,75.65
2024-02-09T09:04:06.710Z,75.56
2024-02-09T09:06:34.487Z,75.37
2024-02-09T09:09:07.133Z,75.12
2024-02-09T09:11:35.466Z,75.04
2024-02-09T09:14:08.296Z,74.89
2024-02-09T09:16:36.087Z,74.80
2024-02-09T09:19:07.041Z,74.61
2024-02-09T09:21:34.279Z,74.46
2024-02-09T09:24:12.121Z,74.30
2024-02-09T09:26:59.157Z,74.46
2024-02-09T09:29:26.185Z,74.60
2024-02-09T09:31:58.554Z,74.63
2024-02-09T09:34:26.072Z,74.47
2024-02-09T09:36:53.498Z,74.47
2024-02-09T09:39:23.882Z,74.36
2024-02-09T09:41:55.231Z,74.36
2024-02-09T09:44:31.116Z,74.15
2024-02-09T09:47:00.867Z,73.73
2024-02-09T09:49:29.350Z,73.41
2024-02-09T09:52:07.935Z,73.56
2024-02-09T09:54:37.284Z,73.60
2024-02-09T09:57:10.942Z,73.76
2024-02-09T09:59:42.251Z,73.39
2024-02-09T10:02:20.205Z,73.38
2024-02-09T10:05:00.287Z,72.39
2024-02-09T10:07:27.990Z,72.36
2024-02-09T10:09:58.240Z,72.18
2024-02-09T10:12:25.690Z,72.47
2024-02-09T10:14:56.607Z,72.40
2024-02-09T10:17:25.389Z,72.19
2024-02-09T10:19:54.425Z,71.91
2024-02-09T10:22:26.778Z,70.84
2024-02-09T10:24:54.428Z,71.38
2024-02-09T10:27:21.492Z,71.75
2024-02-09T10:29:53.301Z,71.77
2024-02-09T10:32:20.145Z,71.20
2024-02-09T10:34:53.136Z,70.74
2024-02-09T10:37:28.601Z,69.90
2024-02-09T10:39:59.356Z,68.94
2024-02-09T10:42:29.884Z,69.10
2024-02-09T10:45:13.513Z,69.21
2024-02-09T10:47:56.101Z,69.44
2024-02-09T10:50:43.285Z,69.27
2024-02-09T10:53:16.856Z,69.07
2024-02-09T10:55:47.120Z,68.73
2024-02-09T10:58:17.124Z,68.73
2024-02-09T11:00:44.936Z,68.99
2024-02-09T11:03:15.537Z,68.91
2024-02-09T11:05:53.497Z,69.19
2024-02-09T11:08:30.217Z,68.88
2024-02-09T11:11:03.099Z,68.65
2024-02-09T11:13:30.332Z,68.39
2024-02-09T11:15:58.547Z,68.32
2024-02-09T11:18:36.097Z,68.40
2024-02-09T11:21:21.583Z,68.09
2024-02-09T11:23:49.240Z,68.00
2024-02-09T11:26:26.132Z,68.09
2024-02-09T11:28:53.148Z,67.74
2024-02-09T11:31:24.785Z,68.06
2024-02-09T11:34:02.589Z,68.34
2024-02-09T11:36:29.856Z,68.19
2024-02-09T11:39:00.042Z,67.98
2024-02-09T11:41:36.309Z,67.98
2024-02-09T11:44:03.168Z,67.98
2024-02-09T11:46:31.410Z,68.22
2024-02-09T11:49:00.539Z,67.86
2024-02-09T11:51:27.439Z,67.88
2024-02-09T11:53:54.515Z,67.76
2024-02-09T11:56:22.436Z,67.63
2024-02-09T11:58:53.319Z,67.47
2024-02-09T12:01:59.639Z,67.38
2024-02-09T12:04:46.853Z,67.27
2024-02-09T12:07:14.921Z,67.16
2024-02-09T12:09:53.485Z,66.78
2024-02-09T12:12:52.536Z,67.00
2024-02-09T12:15:20.551Z,67.12
2024-02-09T12:18:18.256Z,66.90
2024-02-09T12:20:48.376Z,66.20
2024-02-09T12:23:46.582Z,66.42
2024-02-09T12:26:16.085Z,66.51
2024-02-09T12:28:43.154Z,66.42
2024-02-09T12:31:13.273Z,65.42
2024-02-09T12:33:53.579Z,65.77
2024-02-09T12:36:58.766Z,65.47
2024-02-09T12:39:27.386Z,65.43
2024-02-09T12:42:02.657Z,65.81
2024-02-09T12:44:49.766Z,65.87
2024-02-09T12:47:20.355Z,65.56
2024-02-09T12:49:51.089Z,65.11
2024-02-09T12:52:29.733Z,64.61
2024-02-09T12:55:10.026Z,65.27
2024-02-09T12:57:57.192Z,65.15
2024-02-09T13:00:26.860Z,64.92
2024-02-09T13:02:55.049Z,64.86
2024-02-09T13:05:22.459Z,64.64
2024-02-09T13:08:13.047Z,65.11
2024-02-09T13:10:39.867Z,64.37
2024-02-09T13:13:09.766Z,64.37
2024-02-09T13:15:39.840Z,64.32
2024-02-09T13:18:10.383Z,64.77
2024-02-09T13:20:38.224Z,65.08
2024-02-09T13:23:05.380Z,64.97
2024-02-09T13:25:53.970Z,65.13
2024-02-09T13:28:22.420Z,64.46
2024-02-09T13:30:53.206Z,64.49
2024-02-09T13:33:31.318Z,64.95
2024-02-09T13:35:59.808Z,65.01
2024-02-09T13:38:37.594Z,64.48
2024-02-09T13:41:08.734Z,64.43
2024-02-09T13:43:37.979Z,64.87
2024-02-09T13:46:10.097Z,64.25
2024-02-09T13:48:51.064Z,64.66
2024-02-09T13:51:39.427Z,64.79
2024-02-09T13:54:39.082Z,64.89
2024-02-09T13:57:08.986Z,64.60
2024-02-09T13:59:39.196Z,64.61
2024-02-09T14:02:11.328Z,64.80
2024-02-09T14:04:39.623Z,65.13
2024-02-09T14:07:09.870Z,64.96
2024-02-09T14:09:43.880Z,64.96
2024-02-09T14:12:14.367Z,65.06
2024-02-09T14:14:50.755Z,65.10
2024-02-09T14:17:19.163Z,64.67
2024-02-09T14:19:49.280Z,64.27
2024-02-09T14:22:18.315Z,64.59
2024-02-09T14:24:50.434Z,64.91
2024-02-09T14:27:20.351Z,64.80
2024-02-09T14:29:47.298Z,64.85
2024-02-09T14:32:15.042Z,64.63
2024-02-09T14:34:46.411Z,65.00
2024-02-09T14:37:18.453Z,64.53
2024-02-09T14:39:46.483Z,64.60
2024-02-09T14:42:13.403Z,64.53
2024-02-09T14:44:49.686Z,64.50
2024-02-09T14:47:32.603Z,64.89
2024-02-09T14:49:59.501Z,64.51
2024-02-09T14:52:40.354Z,64.60
2024-02-09T14:55:59.078Z,64.98
2024-02-09T14:58:45.901Z,65.06
2024-02-09T15:01:14.558Z,64.94
2024-02-09T15:03:41.702Z,64.94
2024-02-09T15:06:58.969Z,65.02
2024-02-09T15:09:25.850Z,65.31
2024-02-09T15:12:24.525Z,65.22
2024-02-09T15:14:51.668Z,65.10
2024-02-09T15:17:21.912Z,65.17
2024-02-09T15:19:49.520Z,65.27
2024-02-09T15:22:16.869Z,65.41
2024-02-09T15:24:45.476Z,65.47
2024-02-09T15:27:15.202Z,65.19
2024-02-09T15:29:47.241Z,65.35
2024-02-09T15:32:14.548Z,65.17
2024-02-09T15:34:45.907Z,65.32
2024-02-09T15:37:14.324Z,65.06
2024-02-09T15:39:41.450Z,65.02
2024-02-09T15:42:10.047Z,65.29
2024-02-09T15:44:39.207Z,65.44
2024-02-09T15:47:22.967Z,65.12
2024-02-09T15:49:50.925Z,65.37
2024-02-09T15:52:17.951Z,65.39
2024-02-09T15:54:44.754Z,65.28
2024-02-09T15:57:28.448Z,65.40
2024-02-09T15:59:58.163Z,65.16
2024-02-09T16:02:25.223Z,65.21
2024-02-09T16:04:55.349Z,65.15
2024-02-09T16:07:25.598Z,65.34
2024-02-09T16:09:58.166Z,65.38
2024-02-09T16:12:26.320Z,65.40
2024-02-09T16:15:05.105Z,65.44
2024-02-09T16:17:52.099Z,65.55
2024-02-09T16:20:21.417Z,65.69
2024-02-09T16:23:02.172Z,65.72
2024-02-09T16:25:59.199Z,65.54
2024-02-09T16:28:51.875Z,65.61
2024-02-09T16:31:19.330Z,65.66
2024-02-09T16:33:47.520Z,65.72
2024-02-09T16:36:41.275Z,65.70
2024-02-09T16:39:08.115Z,65.62
2024-02-09T16:41:34.883Z,65.74
2024-02-09T16:44:01.728Z,65.82
2024-02-09T16:46:32.305Z,65.81
2024-02-09T16:49:01.452Z,65.92
2024-02-09T16:51:35.414Z,65.92
2024-02-09T16:54:03.194Z,65.97
2024-02-09T16:56:30.237Z,66.04
2024-02-09T16:58:57.213Z,66.16
2024-02-09T17:01:26.571Z,66.10
2024-02-09T17:03:54.240Z,66.28
2024-02-09T17:06:22.537Z,66.41
2024-02-09T17:08:49.697Z,66.38
2024-02-09T17:11:16.566Z,66.48
2024-02-09T17:13:47.225Z,66.53
2024-02-09T17:16:14.336Z,66.79
2024-02-09T17:18:43.678Z,66.91
2024-02-09T17:21:11.514Z,66.83
2024-02-09T17:23:38.358Z,66.85
2024-02-09T17:26:06.308Z,66.71
2024-02-09T17:28:37.105Z,66.88
2024-02-09T17:31:03.980Z,67.12
2024-02-09T17:33:31.083Z,67.10
2024-02-09T17:35:58.185Z,67.15
2024-02-09T17:38:25.470Z,67.16
2024-02-09T17:40:56.229Z,67.26
2024-02-09T17:43:31.756Z,67.28
2024-02-09T17:45:58.942Z,67.13
2024-02-09T17:48:29.400Z,67.26
2024-02-09T17:50:59.461Z,67.11
2024-02-09T17:53:26.229Z,66.88
2024-02-09T17:55:56.483Z,67.14
2024-02-09T17:58:23.430Z,66.98
2024-02-09T18:01:21.290Z,67.30
2024-02-09T18:03:48.990Z,67.73
2024-02-09T18:06:32.465Z,68.01
2024-02-09T18:09:20.269Z,68.42
2024-02-09T18:12:09.859Z,68.42
2024-02-09T18:15:17.677Z,68.62
2024-02-09T18:18:07.205Z,68.72
2024-02-09T18:20:38.686Z,68.80
2024-02-09T18:23:06.464Z,68.74
2024-02-09T18:25:44.611Z,68.66
2024-02-09T18:28:32.828Z,68.60
2024-02-09T18:31:05.396Z,68.59
2024-02-09T18:33:34.647Z,68.50
2024-02-09T18:36:01.644Z,68.57
2024-02-09T18:38:29.065Z,68.56
2024-02-09T18:40:59.106Z,68.70
2024-02-09T18:44:27.181Z,68.58
2024-02-09T18:46:57.469Z,68.63
2024-02-09T18:49:30.171Z,68.77
2024-02-09T18:51:57.975Z,68.64
2024-02-09T18:54:48.137Z,68.47
2024-02-09T18:57:18.207Z,68.43
2024-02-09T19:00:12.995Z,68.39
2024-02-09T19:03:07.117Z,68.31
2024-02-09T19:05:56.531Z,68.33
2024-02-09T19:08:25.991Z,68.32
2024-02-09T19:11:04.274Z,68.39
2024-02-09T19:13:35.920Z,68.26
2024-02-09T19:16:44.698Z,68.15
2024-02-09T19:19:14.487Z,67.96
2024-02-09T19:22:14.858Z,68.00
2024-02-09T19:24:45.461Z,67.88
2024-02-09T19:27:26.076Z,67.91
2024-02-09T19:30:02.100Z,67.83
2024-02-09T19:32:29.112Z,67.88
2024-02-09T19:35:16.666Z,67.78
2024-02-09T19:37:47.830Z,67.79
2024-02-09T19:40:29.777Z,67.65
2024-02-09T19:43:00.507Z,67.55
2024-02-09T19:45:28.573Z,67.39
2024-02-09T19:48:03.215Z,67.38
2024-02-09T19:50:30.413Z,67.31
2024-02-09T19:52:58.170Z,67.30
2024-02-09T19:55:28.487Z,67.22
2024-02-09T19:57:55.344Z,67.18
2024-02-09T20:00:26.455Z,67.13
2024-02-09T20:02:59.698Z,67.13
2024-02-09T20:05:33.782Z,66.88
2024-02-09T20:08:01.330Z,66.79
2024-02-09T20:10:41.476Z,66.69
2024-02-09T20:13:10.329Z,66.69
2024-02-09T20:16:07.965Z,66.69
2024-02-09T20:18:38.763Z,66.80
2024-02-09T20:21:06.946Z,66.77
2024-02-09T20:23:39.220Z,66.49
2024-02-09T20:26:09.599Z,66.60
2024-02-09T20:28:38.161Z,66.64
2024-02-09T20:31:10.417Z,66.64
2024-02-09T20:33:42.478Z,66.71
2024-02-09T20:36:12.356Z,66.71
2024-02-09T20:38:45.802Z,66.60
2024-02-09T20:41:19.933Z,66.54
2024-02-09T20:43:52.374Z,66.48
2024-02-09T20:46:22.874Z,66.43
2024-02-09T20:48:51.532Z,66.48
2024-02-09T20:51:44.776Z,66.48
2024-02-09T20:54:27.742Z,66.46
2024-02-09T20:57:09.537Z,66.57
2024-02-09T20:59:42.150Z,66.45
2024-02-09T21:02:09.711Z,66.44
2024-02-09T21:04:37.899Z,66.45
2024-02-09T21:07:05.724Z,66.40
2024-02-09T21:09:32.683Z,66.42
2024-02-09T21:12:15.335Z,66.46
2024-02-09T21:14:44.588Z,66.24
2024-02-09T21:17:14.932Z,66.08
2024-02-09T21:19:43.880Z,65.95
2024-02-09T21:22:17.371Z,65.86
2024-02-09T21:24:45.694Z,65.71
2024-02-09T21:27:13.462Z,65.79
2024-02-09T21:29:40.933Z,65.83
2024-02-09T21:32:16.199Z,65.81
2024-02-09T21:35:08.540Z,65.73
2024-02-09T21:37:35.455Z,65.37
2024-02-09T21:40:15.840Z,65.63
2024-02-09T21:43:09.211Z,65.69
2024-02-09T21:45:42.350Z,65.72
2024-02-09T21:48:33.072Z,66.00
2024-02-09T21:51:00.659Z,66.19
2024-02-09T21:53:29.269Z,66.29
2024-02-09T21:56:03.695Z,66.30
2024-02-09T21:58:32.750Z,66.37
2024-02-09T22:00:59.726Z,66.56
2024-02-09T22:03:27.757Z,66.68
2024-02-09T22:05:57.163Z,66.70
2024-02-09T22:08:44.009Z,66.70
2024-02-09T22:11:34.948Z,66.81
2024-02-09T22:14:39.515Z,66.82
2024-02-09T22:17:10.383Z,66.96
2024-02-09T22:19:44.928Z,66.94
2024-02-09T22:22:35.387Z,67.16
2024-02-09T22:25:45.761Z,67.20
2024-02-09T22:28:14.504Z,67.46
2024-02-09T22:30:42.046Z,67.54
2024-02-09T22:33:33.222Z,67.59
2024-02-09T22:36:01.631Z,67.67
2024-02-09T22:38:30.160Z,67.51
2024-02-09T22:41:09.021Z,67.33
2024-02-09T22:43:58.824Z,67.27
2024-02-09T22:46:27.593Z,67.43
2024-02-09T22:48:55.126Z,67.13
2024-02-09T22:52:22.828Z,67.23
2024-02-09T22:54:52.946Z,66.92
2024-02-09T22:57:23.631Z,66.85
2024-02-09T22:59:53.781Z,66.62
2024-02-09T23:02:27.250Z,66.66
2024-02-09T23:04:55.483Z,66.50
2024-02-09T23:07:36.597Z,66.24
2024-02-09T23:10:04.400Z,66.22
2024-02-09T23:12:31.780Z,66.08
2024-02-09T23:14:58.589Z,66.08
2024-02-09T23:17:28.141Z,66.07
2024-02-09T23:20:15.316Z,65.91
2024-02-09T23:22:42.349Z,66.22
2024-02-09T23:25:09.533Z,66.10
2024-02-09T23:27:41.339Z,66.05
2024-02-09T23:30:29.364Z,66.15
2024-02-09T23:33:05.694Z,66.12
2024-02-09T23:35:39.929Z,66.12
2024-02-09T23:38:27.628Z,65.93
2024-02-09T23:40:55.245Z,65.90
2024-02-09T23:43:23.833Z,65.75
2024-02-09T23:46:31.730Z,65.59
2024-02-09T23:48:59.018Z,65.42
2024-02-09T23:51:26.455Z,65.31
2024-02-09T23:53:54.620Z,65.28
2024-02-09T23:56:23.103Z,65.31
2024-02-09T23:59:00.494Z,65.16
